aviador You're here:

YBUD Decoded Metar

in
Report Time2017-11-21 05:00:00
UTC Time2017-11-21 05:59:40
Flight Rules vfr VFR
Wind120° at 15 kt
W.Decomp.*RWY 14: 14.1 kt HW 5.1 kt LCW
RWY 07: 9.6 kt HW 11.5 kt RCW
W.Rank120° ranks 9
Current wind is above 120° avg. (11.5)
Visibility9999 m
Phenomena:N/A
Clouds:Scattered 060 Hf
Broken 087 Hf
Expected CloudBase > 4,400 ft AGL from Temp-Dew spread
Ceiling8,700 ft
Temp24°C
Dew Point13°C (50% RH)
AAT19.5°C
QNH1015 hPa
Raw Report
METAR YBUD 210500Z AUTO 12015KT 9999 // SCT060 BKN087 24/13 Q1015=

Extra information for YBUD:More info

Social comments